Time;durP1;ratioP1;P1;durP2;ratioP2;P2;SDS_P1;SDS_P2;PMS_P1;PMS_P2;Temp;Humidity;BMP_temperature;BMP_pressure;BME280_temperature;BME280_humidity;BME280_pressure;Samples;Min_cycle;Max_cycle;Signal;HPM_P1;HPM_P2
2022/08/21 00:02:28;;;;;;;;;;;;;;;17.15;58.08;100786.84;5050762;28;19935;-75
2022/08/21 00:05:37;;;;;;;;;;;;;;;17.15;58.21;100790.31;5050665;28;19927;-75
2022/08/21 00:08:42;;;;;;;;;;;;;;;17.08;59.03;100783.84;5049857;28;20015;-75
2022/08/21 00:11:46;;;;;;;;;;;;;;;17.09;58.66;100795.25;5049116;28;19958;-76
2022/08/21 00:14:55;;;;;;;;;;;;;;;17.04;58.94;100784.16;5049677;28;19920;-75
2022/08/21 00:17:59;;;;;;;;;;;;;;;17.19;58.91;100783.00;5049939;28;20042;-75
2022/08/21 00:21:03;;;;;;;;;;;;;;;16.95;59.47;100789.19;5050680;28;20255;-75
2022/08/21 00:24:09;;;;;;;;;;;;;;;16.99;59.19;100788.97;5049625;28;19962;-76
2022/08/21 00:27:12;;;;;;;;;;;;;;;17.05;58.90;100788.50;5050811;28;19924;-76
2022/08/21 00:30:20;;;;;;;;;;;;;;;16.80;59.47;100792.97;5050283;28;19982;-76
2022/08/21 00:33:26;;;;;;;;;;;;;;;16.86;59.43;100792.50;5050157;28;19939;-75
2022/08/21 00:36:33;;;;;;;;;;;;;;;16.83;59.22;100795.38;5049561;28;19966;-75
2022/08/21 00:39:39;;;;;;;;;;;;;;;16.70;59.53;100792.78;5050002;28;19994;-75
2022/08/21 00:42:42;;;;;;;;;;;;;;;16.63;60.11;100796.00;5049893;28;19919;-75
2022/08/21 00:45:48;;;;;;;;;;;;;;;16.62;60.33;100794.28;5049785;28;20263;-75
2022/08/21 00:48:55;;;;;;;;;;;;;;;16.61;60.56;100793.44;5050106;28;20329;-75
2022/08/21 00:51:59;;;;;;;;;;;;;;;16.86;59.82;100791.69;5048998;28;19962;-76
2022/08/21 00:55:07;;;;;;;;;;;;;;;16.60;60.42;100791.78;5050097;28;19920;-75
2022/08/21 00:58:12;;;;;;;;;;;;;;;16.60;60.30;100788.28;5050176;28;19951;-75
2022/08/21 01:01:15;;;;;;;;;;;;;;;16.57;60.59;100783.25;5050008;28;19923;-75
2022/08/21 01:04:22;;;;;;;;;;;;;;;16.59;59.79;100783.94;5050210;28;19970;-75
2022/08/21 01:07:25;;;;;;;;;;;;;;;16.45;59.95;100787.59;5049406;28;19959;-74
2022/08/21 01:10:31;;;;;;;;;;;;;;;16.66;59.31;100785.22;5049299;28;19923;-74
2022/08/21 01:13:36;;;;;;;;;;;;;;;16.49;59.74;100783.78;5049155;28;19919;-75
2022/08/21 01:16:42;;;;;;;;;;;;;;;16.52;59.58;100779.13;5047000;28;19920;-74
2022/08/21 01:19:47;;;;;;;;;;;;;;;16.28;60.37;100786.19;5049023;28;19920;-75
2022/08/21 01:22:53;;;;;;;;;;;;;;;16.28;60.81;100783.56;5050237;28;19920;-75
2022/08/21 01:25:57;;;;;;;;;;;;;;;16.21;61.51;100779.69;5049712;28;19928;-75
2022/08/21 01:29:16;;;;;;;;;;;;;;;16.22;61.24;100781.34;5049769;28;20305;-75
2022/08/21 01:32:20;;;;;;;;;;;;;;;16.21;61.33;100783.16;5029104;28;19920;-75
2022/08/21 01:35:26;;;;;;;;;;;;;;;16.19;61.76;100776.31;5044766;28;20353;-76
2022/08/21 01:38:30;;;;;;;;;;;;;;;16.28;61.19;100775.66;5048285;28;20551;-75
2022/08/21 01:41:36;;;;;;;;;;;;;;;16.10;61.58;100771.69;5047367;28;20058;-75
2022/08/21 01:44:42;;;;;;;;;;;;;;;16.10;61.29;100775.16;5047384;28;20466;-75
2022/08/21 01:47:46;;;;;;;;;;;;;;;15.95;61.36;100774.47;5045773;28;20307;-75
2022/08/21 01:50:53;;;;;;;;;;;;;;;15.94;61.72;100777.19;5046283;28;20382;-75
2022/08/21 01:53:57;;;;;;;;;;;;;;;15.89;61.69;100774.91;5027335;28;19968;-75
2022/08/21 01:57:06;;;;;;;;;;;;;;;15.61;62.14;100785.66;5027016;28;19959;-75
2022/08/21 02:00:11;;;;;;;;;;;;;;;15.71;62.16;100778.81;5028855;28;20505;-76
2022/08/21 02:03:27;;;;;;;;;;;;;;;15.76;62.63;100779.31;5045106;28;19951;-75
2022/08/21 02:06:30;;;;;;;;;;;;;;;15.70;63.00;100774.50;5052293;28;19962;-75
2022/08/21 02:09:35;;;;;;;;;;;;;;;15.76;62.39;100769.66;5052721;28;19923;-76
2022/08/21 02:12:41;;;;;;;;;;;;;;;15.73;62.37;100774.25;5053264;28;19923;-75
2022/08/21 02:15:48;;;;;;;;;;;;;;;15.59;62.95;100768.13;5053019;28;19920;-75
2022/08/21 02:18:51;;;;;;;;;;;;;;;15.70;62.53;100764.81;5033030;28;19920;-75
2022/08/21 02:21:56;;;;;;;;;;;;;;;15.60;62.65;100761.06;5033027;28;19970;-76
2022/08/21 02:24:59;;;;;;;;;;;;;;;15.57;62.82;100761.28;5032308;28;19967;-76
2022/08/21 02:28:10;;;;;;;;;;;;;;;15.52;62.83;100764.25;5032350;28;20398;-76
2022/08/21 02:31:14;;;;;;;;;;;;;;;15.34;63.66;100754.97;5038145;28;19966;-76
2022/08/21 02:34:18;;;;;;;;;;;;;;;15.56;62.84;100752.53;5066510;28;20046;-76
2022/08/21 02:37:24;;;;;;;;;;;;;;;15.35;63.47;100760.13;5070639;28;20114;-76
2022/08/21 02:40:30;;;;;;;;;;;;;;;15.39;63.36;100750.22;5070900;28;19966;-76
2022/08/21 02:43:34;;;;;;;;;;;;;;;15.57;62.50;100754.25;5051387;28;20326;-76
2022/08/21 02:46:40;;;;;;;;;;;;;;;15.50;62.85;100752.94;5051028;28;20266;-76
2022/08/21 02:49:44;;;;;;;;;;;;;;;15.34;63.41;100757.59;5050937;28;19943;-76
2022/08/21 02:52:47;;;;;;;;;;;;;;;15.27;63.52;100761.59;5050318;28;19924;-76
2022/08/21 02:55:56;;;;;;;;;;;;;;;15.39;63.00;100762.56;5050021;28;19919;-76
2022/08/21 02:59:01;;;;;;;;;;;;;;;15.30;63.50;100766.66;5037815;28;19957;-76
2022/08/21 03:02:05;;;;;;;;;;;;;;;15.33;63.28;100764.66;5050034;28;19959;-76
2022/08/21 03:05:09;;;;;;;;;;;;;;;15.25;63.65;100756.47;5050013;28;19963;-76
2022/08/21 03:08:18;;;;;;;;;;;;;;;15.16;64.07;100762.34;5050450;28;19919;-75
2022/08/21 03:11:22;;;;;;;;;;;;;;;15.24;63.91;100756.53;5050464;28;19966;-76
2022/08/21 03:14:27;;;;;;;;;;;;;;;15.08;64.10;100754.09;5057955;28;19919;-75
2022/08/21 03:17:33;;;;;;;;;;;;;;;15.09;64.15;100747.88;5070291;28;19981;-76
2022/08/21 03:20:38;;;;;;;;;;;;;;;15.06;64.63;100754.22;5069961;28;20274;-76
2022/08/21 03:23:41;;;;;;;;;;;;;;;14.99;64.71;100750.28;5069397;28;19919;-75
2022/08/21 03:26:51;;;;;;;;;;;;;;;15.12;64.32;100763.47;5029920;28;20387;-75
2022/08/21 03:29:54;;;;;;;;;;;;;;;14.98;64.75;100759.16;5047138;28;20527;-75
2022/08/21 03:33:00;;;;;;;;;;;;;;;14.87;64.88;100761.66;5049514;28;20002;-75
2022/08/21 03:36:05;;;;;;;;;;;;;;;14.88;64.45;100755.44;5037751;28;19919;-75
2022/08/21 03:39:22;;;;;;;;;;;;;;;14.83;64.39;100750.47;5049966;28;19919;-75
2022/08/21 03:42:27;;;;;;;;;;;;;;;14.84;64.37;100757.44;5048867;28;20418;-75
2022/08/21 03:45:33;;;;;;;;;;;;;;;14.74;64.91;100760.75;5050947;28;20050;-75
2022/08/21 03:48:40;;;;;;;;;;;;;;;14.61;64.61;100766.84;5051821;28;19923;-75
2022/08/21 03:51:43;;;;;;;;;;;;;;;14.74;64.97;100768.66;5051297;28;19918;-75
2022/08/21 03:54:50;;;;;;;;;;;;;;;14.74;64.79;100763.41;5051318;28;20012;-75
2022/08/21 03:57:53;;;;;;;;;;;;;;;14.65;64.97;100763.06;5050384;28;19978;-75
2022/08/21 04:00:59;;;;;;;;;;;;;;;14.72;65.05;100770.56;5051077;28;19939;-75
2022/08/21 04:04:03;;;;;;;;;;;;;;;14.67;65.61;100777.91;5050562;28;19967;-75
2022/08/21 04:07:09;;;;;;;;;;;;;;;14.77;65.05;100777.22;5049077;28;19918;-75
2022/08/21 04:10:16;;;;;;;;;;;;;;;14.75;65.15;100781.75;5050097;28;19975;-75
2022/08/21 04:13:21;;;;;;;;;;;;;;;14.71;65.29;100779.38;5030129;28;19920;-76
2022/08/21 04:16:26;;;;;;;;;;;;;;;14.65;65.08;100780.66;5029769;28;19971;-75
2022/08/21 04:19:32;;;;;;;;;;;;;;;14.56;65.46;100784.72;5031025;28;19920;-75
2022/08/21 04:22:36;;;;;;;;;;;;;;;14.55;66.01;100790.94;5030081;28;20528;-75
2022/08/21 04:25:39;;;;;;;;;;;;;;;14.81;65.38;100791.03;5032414;28;19991;-75
2022/08/21 04:28:48;;;;;;;;;;;;;;;14.43;66.49;100802.22;5050044;28;19922;-75
2022/08/21 04:31:54;;;;;;;;;;;;;;;14.51;66.22;100797.31;5049574;28;19999;-75
2022/08/21 04:34:59;;;;;;;;;;;;;;;14.40;66.44;100797.16;5069134;28;19986;-75
2022/08/21 04:38:02;;;;;;;;;;;;;;;14.33;66.21;100801.97;5069503;28;20004;-75
2022/08/21 04:41:06;;;;;;;;;;;;;;;14.32;66.06;100815.19;5054080;28;19924;-76
2022/08/21 04:44:35;;;;;;;;;;;;;;;14.31;66.58;100813.50;5048529;28;19959;-76
2022/08/21 04:47:44;;;;;;;;;;;;;;;14.27;66.51;100814.66;5050105;28;19966;-76
2022/08/21 04:50:51;;;;;;;;;;;;;;;14.23;67.05;100813.13;5049401;28;19971;-74
2022/08/21 04:53:58;;;;;;;;;;;;;;;14.19;66.91;100821.22;5048625;28;20017;-74
2022/08/21 04:57:05;;;;;;;;;;;;;;;14.26;67.23;100826.09;5049463;28;19973;-75
2022/08/21 05:00:10;;;;;;;;;;;;;;;14.33;66.96;100825.63;5029586;28;19966;-75
2022/08/21 05:03:15;;;;;;;;;;;;;;;14.54;66.36;100826.06;5029900;28;20378;-75
2022/08/21 05:06:26;;;;;;;;;;;;;;;14.39;66.97;100827.03;5029599;28;19967;-75
2022/08/21 05:09:32;;;;;;;;;;;;;;;14.37;67.40;100828.91;5055531;28;19923;-75
2022/08/21 05:12:41;;;;;;;;;;;;;;;14.30;67.67;100830.25;5069617;28;20286;-76
2022/08/21 05:16:06;;;;;;;;;;;;;;;14.40;67.20;100829.56;5045318;28;19927;-76
2022/08/21 05:19:12;;;;;;;;;;;;;;;14.51;66.57;100831.53;5029788;28;20014;-75
2022/08/21 05:22:19;;;;;;;;;;;;;;;14.47;66.96;100834.44;5029753;28;19967;-75
2022/08/21 05:25:22;;;;;;;;;;;;;;;14.51;67.02;100842.06;5049403;28;19924;-75
2022/08/21 05:28:26;;;;;;;;;;;;;;;14.80;65.90;100837.53;5049272;28;19915;-75
2022/08/21 05:31:29;;;;;;;;;;;;;;;14.80;65.52;100836.69;5049636;28;19978;-75
2022/08/21 05:34:33;;;;;;;;;;;;;;;14.67;66.26;100835.81;5049474;28;19924;-75
2022/08/21 05:37:45;;;;;;;;;;;;;;;14.74;65.84;100837.09;5048828;28;19951;-76
2022/08/21 05:40:48;;;;;;;;;;;;;;;14.79;65.18;100842.91;5049729;28;19924;-75
2022/08/21 05:43:54;;;;;;;;;;;;;;;15.03;64.56;100843.97;5050070;28;19920;-76
2022/08/21 05:47:02;;;;;;;;;;;;;;;15.04;64.23;100839.53;5048808;28;20008;-77
2022/08/21 05:50:09;;;;;;;;;;;;;;;14.81;65.12;100841.03;5050257;28;20043;-77
2022/08/21 05:53:14;;;;;;;;;;;;;;;14.83;66.24;100829.44;5048359;28;19974;-77
2022/08/21 05:56:17;;;;;;;;;;;;;;;14.92;66.39;100830.63;5048076;28;20430;-77
2022/08/21 05:59:20;;;;;;;;;;;;;;;15.00;66.18;100832.78;5047281;28;19923;-77
2022/08/21 06:02:26;;;;;;;;;;;;;;;14.99;66.18;100826.66;5047820;28;20033;-76
2022/08/21 06:05:33;;;;;;;;;;;;;;;15.13;65.61;100817.03;5047553;28;19978;-76
2022/08/21 06:08:36;;;;;;;;;;;;;;;15.09;66.49;100816.34;5049580;28;19936;-76
2022/08/21 06:11:39;;;;;;;;;;;;;;;14.74;67.72;100813.41;5049604;28;19919;-75
2022/08/21 06:14:46;;;;;;;;;;;;;;;15.04;66.69;100813.19;5049222;28;19962;-75
2022/08/21 06:17:55;;;;;;;;;;;;;;;14.87;67.33;100816.94;5046904;28;20008;-75
2022/08/21 06:20:58;;;;;;;;;;;;;;;14.87;67.85;100811.69;5058204;28;19920;-75
2022/08/21 06:24:05;;;;;;;;;;;;;;;14.94;67.16;100812.97;5048564;28;19958;-74
2022/08/21 06:27:08;;;;;;;;;;;;;;;15.02;67.00;100807.19;5028367;28;20378;-74
2022/08/21 06:30:15;;;;;;;;;;;;;;;15.14;66.94;100809.00;5028765;28;19923;-74
2022/08/21 06:33:18;;;;;;;;;;;;;;;15.42;65.75;100802.72;5028724;28;19924;-73
2022/08/21 06:36:24;;;;;;;;;;;;;;;15.46;65.41;100806.81;5029180;28;19920;-73
2022/08/21 06:39:27;;;;;;;;;;;;;;;15.54;65.01;100812.44;5044552;28;19919;-73
2022/08/21 06:42:40;;;;;;;;;;;;;;;15.51;64.67;100802.09;5049423;28;19920;-73
2022/08/21 06:45:44;;;;;;;;;;;;;;;15.64;64.47;100809.16;5048971;28;19916;-73
2022/08/21 06:48:54;;;;;;;;;;;;;;;15.70;64.28;100798.22;5049755;28;20795;-73
2022/08/21 06:51:57;;;;;;;;;;;;;;;15.95;63.44;100806.13;5052636;28;19974;-73
2022/08/21 06:55:03;;;;;;;;;;;;;;;16.04;63.35;100805.44;5052264;28;19974;-73
2022/08/21 06:58:13;;;;;;;;;;;;;;;16.02;63.64;100794.19;5052234;28;20504;-72
2022/08/21 07:01:21;;;;;;;;;;;;;;;16.37;62.57;100795.22;5051799;28;19919;-73
2022/08/21 07:04:37;;;;;;;;;;;;;;;16.26;63.21;100796.00;5051499;28;19919;-74
2022/08/21 07:07:52;;;;;;;;;;;;;;;16.45;62.67;100792.88;5052330;28;19983;-75
2022/08/21 07:11:04;;;;;;;;;;;;;;;16.50;63.09;100790.75;5052637;28;19924;-75
2022/08/21 07:14:08;;;;;;;;;;;;;;;16.57;62.64;100783.25;5052303;28;19935;-75
2022/08/21 07:17:17;;;;;;;;;;;;;;;16.71;62.40;100786.53;5050896;28;19920;-75
2022/08/21 07:20:23;;;;;;;;;;;;;;;16.83;61.41;100790.09;5051813;28;19939;-74
2022/08/21 07:23:33;;;;;;;;;;;;;;;17.01;61.51;100781.78;5051346;28;19943;-75
2022/08/21 07:26:40;;;;;;;;;;;;;;;17.09;61.44;100771.47;5050885;28;19982;-75
2022/08/21 07:29:45;;;;;;;;;;;;;;;17.26;61.01;100778.97;5051665;28;19924;-75
2022/08/21 07:33:01;;;;;;;;;;;;;;;17.43;60.31;100775.84;5053521;28;20006;-75
2022/08/21 07:36:17;;;;;;;;;;;;;;;17.59;59.74;100769.38;5071657;28;20392;-75
2022/08/21 07:43:17;;;;;;;;;;;;;;;18.02;58.25;100764.22;5012161;28;20328;-76
2022/08/21 07:46:20;;;;;;;;;;;;;;;18.19;58.43;100757.59;5059424;28;20003;-75
2022/08/21 07:49:24;;;;;;;;;;;;;;;18.29;58.79;100758.53;5071114;28;20369;-75
2022/08/21 07:52:30;;;;;;;;;;;;;;;18.41;58.90;100750.53;5071286;28;20566;-76
2022/08/21 07:55:34;;;;;;;;;;;;;;;18.59;57.97;100754.34;5071073;28;19919;-76
2022/08/21 07:58:39;;;;;;;;;;;;;;;18.75;58.03;100749.47;5071504;28;19920;-76
2022/08/21 08:01:45;;;;;;;;;;;;;;;18.91;57.31;100742.91;5070458;28;19951;-76
2022/08/21 08:04:48;;;;;;;;;;;;;;;19.02;57.14;100740.22;5071226;28;20006;-76
2022/08/21 08:07:55;;;;;;;;;;;;;;;19.11;56.81;100739.41;5070653;28;19969;-75
2022/08/21 08:11:01;;;;;;;;;;;;;;;19.18;56.59;100734.44;5070964;28;19970;-75
2022/08/21 08:14:15;;;;;;;;;;;;;;;19.32;56.03;100722.66;5067971;28;19943;-75
2022/08/21 08:17:24;;;;;;;;;;;;;;;19.46;55.79;100724.94;5049813;28;19919;-75
2022/08/21 08:20:29;;;;;;;;;;;;;;;19.55;55.64;100720.66;5050353;28;20008;-76
2022/08/21 08:23:35;;;;;;;;;;;;;;;19.63;56.08;100719.03;5050811;28;19919;-75
2022/08/21 08:26:41;;;;;;;;;;;;;;;19.79;55.56;100715.91;5050290;28;19920;-76
2022/08/21 08:29:51;;;;;;;;;;;;;;;19.86;55.51;100708.25;5049429;28;19925;-76
2022/08/21 08:37:22;;;;;;;;;;;;;;;20.10;54.09;100711.38;5050043;28;19952;-75
2022/08/21 08:40:56;;;;;;;;;;;;;;;20.17;52.70;100707.19;5050026;28;19919;-74
2022/08/21 08:44:04;;;;;;;;;;;;;;;20.32;51.66;100709.41;5048717;28;20414;-75
2022/08/21 08:47:12;;;;;;;;;;;;;;;20.62;50.03;100704.03;5049502;28;19919;-78
2022/08/21 08:50:21;;;;;;;;;;;;;;;20.65;49.60;100706.41;5049177;28;20385;-73
2022/08/21 08:53:24;;;;;;;;;;;;;;;20.91;47.60;100705.81;5048805;28;19920;-73
2022/08/21 08:56:30;;;;;;;;;;;;;;;20.90;48.13;100704.13;5049455;28;20320;-73
2022/08/21 08:59:39;;;;;;;;;;;;;;;21.02;47.78;100704.78;5030485;28;19983;-73
2022/08/21 09:02:43;;;;;;;;;;;;;;;20.98;47.82;100703.41;5030580;28;19975;-73
2022/08/21 09:05:55;;;;;;;;;;;;;;;21.12;47.18;100703.81;5039759;28;19919;-73
2022/08/21 09:09:17;;;;;;;;;;;;;;;21.41;46.29;100694.94;5049994;28;19923;-73
2022/08/21 09:12:38;;;;;;;;;;;;;;;21.50;45.78;100694.00;5047803;28;19923;-73
2022/08/21 09:15:43;;;;;;;;;;;;;;;21.45;45.33;100688.31;5048892;28;19912;-73
2022/08/21 09:18:59;;;;;;;;;;;;;;;21.52;45.45;100681.41;5050133;28;19951;-73
2022/08/21 09:22:09;;;;;;;;;;;;;;;21.37;45.37;100669.56;5050074;28;19911;-73
2022/08/21 09:25:20;;;;;;;;;;;;;;;21.41;45.33;100663.00;5049945;28;19938;-74
2022/08/21 09:28:24;;;;;;;;;;;;;;;21.70;43.92;100662.03;5049506;28;20438;-73
2022/08/21 09:31:29;;;;;;;;;;;;;;;21.67;43.78;100659.66;5050088;28;19923;-73
2022/08/21 09:34:32;;;;;;;;;;;;;;;21.78;43.47;100668.25;5049129;28;19970;-74
2022/08/21 09:37:56;;;;;;;;;;;;;;;21.78;43.19;100670.91;5049168;28;19935;-73
2022/08/21 09:41:10;;;;;;;;;;;;;;;21.85;43.40;100668.47;5045492;28;19970;-74
2022/08/21 09:44:23;;;;;;;;;;;;;;;22.09;42.46;100670.59;5047351;28;20278;-73
2022/08/21 09:47:27;;;;;;;;;;;;;;;22.12;42.48;100674.78;5047256;28;20385;-73
2022/08/21 09:50:30;;;;;;;;;;;;;;;21.98;42.06;100668.94;5046707;28;19963;-73
2022/08/21 09:53:34;;;;;;;;;;;;;;;21.82;42.91;100663.47;5047555;28;19920;-73
2022/08/21 10:00:09;;;;;;;;;;;;;;;21.85;43.50;100646.34;5047549;28;19920;-74
2022/08/21 10:03:18;;;;;;;;;;;;;;;21.90;43.47;100644.94;5047284;28;19959;-74
2022/08/21 10:06:27;;;;;;;;;;;;;;;22.39;41.52;100631.25;5046578;28;19919;-75
2022/08/21 10:09:31;;;;;;;;;;;;;;;22.21;41.31;100626.78;5035244;28;20016;-75
2022/08/21 10:12:53;;;;;;;;;;;;;;;22.16;41.96;100623.72;5047170;28;19920;-75
2022/08/21 10:16:06;;;;;;;;;;;;;;;22.15;42.16;100611.38;5047861;28;20481;-75
2022/08/21 10:19:12;;;;;;;;;;;;;;;22.33;41.39;100606.06;5058753;28;20017;-77
2022/08/21 10:22:34;;;;;;;;;;;;;;;22.31;41.14;100599.22;5048529;28;19969;-75
2022/08/21 10:25:47;;;;;;;;;;;;;;;22.47;40.14;100605.50;5050329;28;19920;-74
2022/08/21 10:29:10;;;;;;;;;;;;;;;22.90;39.35;100614.44;5050684;28;19986;-75
2022/08/21 10:32:13;;;;;;;;;;;;;;;23.03;38.97;100610.53;5038880;28;19935;-75
2022/08/21 10:35:21;;;;;;;;;;;;;;;22.87;39.45;100606.75;5049925;28;20298;-76
2022/08/21 10:38:25;;;;;;;;;;;;;;;22.60;38.67;100610.44;5037471;28;19923;-76
2022/08/21 10:41:47;;;;;;;;;;;;;;;22.58;39.82;100600.91;5050833;28;20066;-76
2022/08/21 10:45:09;;;;;;;;;;;;;;;22.62;38.93;100594.28;5051693;28;20000;-76
2022/08/21 10:48:39;;;;;;;;;;;;;;;22.73;39.45;100588.69;5050540;28;19965;-76
2022/08/21 10:52:01;;;;;;;;;;;;;;;23.05;38.07;100587.22;5037748;28;19927;-72
2022/08/21 10:55:04;;;;;;;;;;;;;;;23.26;37.47;100578.81;5050726;28;20254;-73
2022/08/21 10:58:09;;;;;;;;;;;;;;;23.46;37.29;100587.41;5051882;28;19970;-74
2022/08/21 11:01:15;;;;;;;;;;;;;;;23.53;36.84;100581.22;5039183;28;20275;-73
2022/08/21 11:04:30;;;;;;;;;;;;;;;23.42;37.63;100584.19;5051190;28;19959;-72
2022/08/21 11:07:39;;;;;;;;;;;;;;;23.49;37.20;100581.72;5049322;28;19969;-73
2022/08/21 11:10:48;;;;;;;;;;;;;;;23.20;38.19;100582.97;5037822;28;19923;-72
2022/08/21 11:13:55;;;;;;;;;;;;;;;23.14;37.95;100576.44;5050878;28;19920;-72
2022/08/21 11:17:03;;;;;;;;;;;;;;;23.43;38.16;100576.03;5051966;28;19919;-73
2022/08/21 11:20:16;;;;;;;;;;;;;;;23.43;38.77;100564.53;5051693;28;20005;-73
2022/08/21 11:23:19;;;;;;;;;;;;;;;23.23;38.55;100569.31;5051693;28;19959;-72
2022/08/21 11:26:43;;;;;;;;;;;;;;;23.33;38.17;100564.66;5051660;28;19935;-72
2022/08/21 11:29:49;;;;;;;;;;;;;;;23.32;37.66;100557.66;5050352;28;19981;-73
2022/08/21 11:33:06;;;;;;;;;;;;;;;23.70;36.53;100563.44;5050730;28;19967;-72
2022/08/21 11:36:32;;;;;;;;;;;;;;;23.75;35.61;100558.44;5050316;28;19969;-72
2022/08/21 11:39:49;;;;;;;;;;;;;;;23.86;34.70;100566.13;5042487;28;19919;-73
2022/08/21 11:42:55;;;;;;;;;;;;;;;23.83;34.51;100566.47;5051708;28;19969;-73
2022/08/21 11:46:08;;;;;;;;;;;;;;;23.82;34.69;100563.97;5051151;28;20429;-73
2022/08/21 11:49:14;;;;;;;;;;;;;;;23.95;34.28;100548.28;5049571;28;19924;-73
2022/08/21 11:52:30;;;;;;;;;;;;;;;24.21;34.13;100558.78;5051310;28;19967;-73
2022/08/21 11:55:56;;;;;;;;;;;;;;;24.36;33.57;100562.47;5051643;28;19998;-73
2022/08/21 11:59:02;;;;;;;;;;;;;;;24.54;32.99;100548.09;5051334;28;19992;-73
2022/08/21 12:02:12;;;;;;;;;;;;;;;24.46;34.08;100546.28;5051260;28;20358;-73
2022/08/21 12:05:24;;;;;;;;;;;;;;;24.53;33.64;100538.41;5050723;28;19936;-73
2022/08/21 12:08:30;;;;;;;;;;;;;;;24.53;34.97;100538.41;5050992;28;19919;-72
2022/08/21 12:11:45;;;;;;;;;;;;;;;24.53;32.81;100539.22;5050972;28;19938;-74
2022/08/21 12:14:50;;;;;;;;;;;;;;;24.83;32.18;100540.34;5050659;28;19923;-73
2022/08/21 12:18:18;;;;;;;;;;;;;;;25.00;31.22;100546.44;5049823;28;19919;-74
2022/08/21 12:21:27;;;;;;;;;;;;;;;25.11;30.76;100547.91;5050753;28;19963;-73
2022/08/21 12:24:41;;;;;;;;;;;;;;;25.49;30.04;100532.84;5050615;28;19919;-73
2022/08/21 12:27:48;;;;;;;;;;;;;;;25.66;29.60;100533.56;5051102;28;19951;-73
2022/08/21 12:30:51;;;;;;;;;;;;;;;25.78;28.88;100536.63;5050455;28;20012;-73
2022/08/21 12:33:58;;;;;;;;;;;;;;;25.89;28.06;100532.75;5050346;28;19924;-73
2022/08/21 12:37:21;;;;;;;;;;;;;;;25.87;28.75;100534.78;5050436;28;19919;-72
2022/08/21 12:40:31;;;;;;;;;;;;;;;26.03;28.12;100528.44;5050539;28;19919;-73
2022/08/21 12:43:35;;;;;;;;;;;;;;;26.13;28.85;100524.53;5050742;28;20275;-73
2022/08/21 12:46:56;;;;;;;;;;;;;;;26.24;28.56;100525.09;5049334;28;20326;-73
2022/08/21 12:50:09;;;;;;;;;;;;;;;26.44;27.72;100532.41;5050512;28;19924;-72
2022/08/21 12:53:19;;;;;;;;;;;;;;;26.28;27.98;100511.13;5049628;28;19923;-73
2022/08/21 12:56:24;;;;;;;;;;;;;;;26.37;28.94;100503.84;5048643;28;19942;-73
2022/08/21 12:59:28;;;;;;;;;;;;;;;26.85;27.82;100501.63;5048168;28;19939;-73
2022/08/21 13:02:34;;;;;;;;;;;;;;;26.98;27.45;100506.34;5047711;28;19920;-73
2022/08/21 13:05:41;;;;;;;;;;;;;;;27.67;27.27;100495.97;5047844;28;19920;-72
2022/08/21 13:08:45;;;;;;;;;;;;;;;28.02;24.19;100513.03;5047636;28;19920;-72
2022/08/21 13:11:50;;;;;;;;;;;;;;;30.30;21.01;100492.94;5048792;28;19966;-72
2022/08/21 13:14:55;;;;;;;;;;;;;;;33.72;17.78;100486.06;5048875;28;19943;-72
2022/08/21 13:18:02;;;;;;;;;;;;;;;36.81;14.37;100486.91;5048940;28;19919;-72
2022/08/21 13:21:12;;;;;;;;;;;;;;;36.44;13.83;100492.94;5048697;28;20422;-73
2022/08/21 13:24:18;;;;;;;;;;;;;;;36.92;13.48;100488.63;5051356;28;20383;-74
2022/08/21 13:27:28;;;;;;;;;;;;;;;40.82;11.76;100482.31;5050534;28;19987;-74
2022/08/21 13:30:32;;;;;;;;;;;;;;;37.96;12.83;100479.28;5049154;28;20421;-74
2022/08/21 13:33:36;;;;;;;;;;;;;;;41.25;10.41;100479.06;5049533;28;19923;-74
2022/08/21 13:36:59;;;;;;;;;;;;;;;44.07;9.24;100469.63;5050213;28;19923;-75
2022/08/21 13:40:07;;;;;;;;;;;;;;;43.64;9.34;100467.09;5050170;28;19935;-74
2022/08/21 13:43:14;;;;;;;;;;;;;;;46.04;8.66;100465.59;5048689;28;20379;-74
2022/08/21 13:46:20;;;;;;;;;;;;;;;44.66;9.36;100452.44;5049226;28;20387;-75
2022/08/21 13:49:38;;;;;;;;;;;;;;;42.85;10.75;100450.44;5049897;28;19963;-75
2022/08/21 13:52:51;;;;;;;;;;;;;;;45.91;9.55;100442.47;5049389;28;19986;-74
2022/08/21 13:55:55;;;;;;;;;;;;;;;47.57;8.68;100441.44;5049282;28;20408;-74
2022/08/21 13:59:00;;;;;;;;;;;;;;;46.12;9.39;100448.22;5051335;28;19938;-74
2022/08/21 14:02:09;;;;;;;;;;;;;;;44.39;9.77;100442.25;5052762;28;20010;-74
2022/08/21 14:05:25;;;;;;;;;;;;;;;46.84;9.01;100431.09;5052236;28;19990;-74
2022/08/21 14:08:33;;;;;;;;;;;;;;;41.82;10.52;100442.59;5051743;28;20283;-74
2022/08/21 14:11:36;;;;;;;;;;;;;;;40.45;13.51;100442.47;5052063;28;19989;-76
2022/08/21 14:14:39;;;;;;;;;;;;;;;41.17;11.32;100442.09;5049451;28;19924;-74
2022/08/21 14:17:43;;;;;;;;;;;;;;;36.75;15.39;100442.41;5052462;28;19920;-75
2022/08/21 14:20:47;;;;;;;;;;;;;;;39.25;12.79;100429.53;5051685;28;20090;-76
2022/08/21 14:23:59;;;;;;;;;;;;;;;36.67;14.94;100435.53;5051512;28;19955;-76
2022/08/21 14:27:08;;;;;;;;;;;;;;;40.71;12.93;100420.44;5039256;28;19927;-75
2022/08/21 14:30:19;;;;;;;;;;;;;;;40.86;12.09;100428.56;5051629;28;20212;-75
2022/08/21 14:33:30;;;;;;;;;;;;;;;40.41;13.02;100422.22;5051432;28;20212;-75
2022/08/21 14:36:36;;;;;;;;;;;;;;;39.28;14.46;100407.09;5051741;28;20437;-75
2022/08/21 14:39:41;;;;;;;;;;;;;;;36.63;16.64;100406.31;5039863;28;19975;-75
2022/08/21 14:42:45;;;;;;;;;;;;;;;37.22;15.05;100412.66;5049936;28;19924;-75
2022/08/21 14:45:52;;;;;;;;;;;;;;;34.12;20.32;100423.81;5050976;28;19967;-74
2022/08/21 14:48:55;;;;;;;;;;;;;;;30.86;20.83;100428.66;5047934;28;20283;-75
2022/08/21 14:51:59;;;;;;;;;;;;;;;30.24;22.01;100423.66;5050795;28;19975;-74
2022/08/21 14:55:02;;;;;;;;;;;;;;;30.05;23.36;100427.19;5050705;28;20043;-74
2022/08/21 14:58:06;;;;;;;;;;;;;;;30.15;24.83;100419.50;5051267;28;19962;-75
2022/08/21 15:01:11;;;;;;;;;;;;;;;30.11;25.18;100416.38;5050631;28;20301;-75
2022/08/21 15:04:15;;;;;;;;;;;;;;;30.10;25.32;100420.13;5051065;28;19919;-74
2022/08/21 15:07:20;;;;;;;;;;;;;;;30.04;23.74;100417.47;5050256;28;20008;-75
2022/08/21 15:10:23;;;;;;;;;;;;;;;29.97;26.10;100411.25;5048617;28;20012;-74
2022/08/21 15:13:27;;;;;;;;;;;;;;;30.07;26.33;100414.34;5050584;28;19966;-76
2022/08/21 15:16:31;;;;;;;;;;;;;;;30.74;24.95;100413.09;5049525;28;19919;-75
2022/08/21 15:19:34;;;;;;;;;;;;;;;30.99;24.82;100415.06;5050948;28;19943;-75
2022/08/21 15:22:38;;;;;;;;;;;;;;;30.32;25.45;100415.34;5050896;28;19923;-75
2022/08/21 15:25:43;;;;;;;;;;;;;;;30.45;25.58;100405.56;5049763;28;19963;-75
2022/08/21 15:28:46;;;;;;;;;;;;;;;30.45;26.01;100405.56;5050032;28;19920;-75
2022/08/21 15:32:09;;;;;;;;;;;;;;;30.28;26.18;100405.19;5050422;28;20004;-75
2022/08/21 15:35:13;;;;;;;;;;;;;;;30.70;25.40;100394.84;5065161;28;20419;-75
2022/08/21 15:38:17;;;;;;;;;;;;;;;30.90;22.88;100413.66;5049562;28;19927;-74
2022/08/21 15:41:20;;;;;;;;;;;;;;;29.80;24.02;100414.41;5037569;28;19930;-74
2022/08/21 15:44:25;;;;;;;;;;;;;;;29.11;27.27;100412.03;5050296;28;20039;-74
2022/08/21 15:47:30;;;;;;;;;;;;;;;28.78;26.53;100415.47;5038098;28;20444;-75
2022/08/21 15:50:33;;;;;;;;;;;;;;;28.91;25.80;100412.81;5050070;28;19927;-75
2022/08/21 15:53:38;;;;;;;;;;;;;;;28.54;26.89;100408.72;5051546;28;19981;-75
2022/08/21 15:56:46;;;;;;;;;;;;;;;28.68;28.66;100406.91;5049617;28;20655;-75
2022/08/21 15:59:54;;;;;;;;;;;;;;;28.65;27.67;100408.13;5050156;28;19935;-75
2022/08/21 16:02:58;;;;;;;;;;;;;;;28.59;28.36;100408.13;5049446;28;19924;-75
2022/08/21 16:06:01;;;;;;;;;;;;;;;28.63;28.68;100409.41;5049160;28;19958;-75
2022/08/21 16:09:05;;;;;;;;;;;;;;;28.39;29.25;100403.44;5049744;28;20355;-75
2022/08/21 16:12:10;;;;;;;;;;;;;;;28.21;29.56;100406.69;5050137;28;20279;-74
2022/08/21 16:15:14;;;;;;;;;;;;;;;28.29;28.27;100408.38;5031540;28;19912;-75
2022/08/21 16:18:18;;;;;;;;;;;;;;;28.23;26.29;100403.78;5049013;28;19973;-74